ES-0069 weather

Air Marugán
Castilla y León, Spain

Public forecast

Using degrees Celsius for public forecast. Weather courtesy of forecast.io.

Closest aviation weather report (METAR) to Air Marugán

Closest report is Adolfo Suárez Madrid–Barajas Airport, 45.3 nm (83.8 km) SE. Retrieved 2019/10/18 18:30 UTC (0 seconds ago):

LEMD 181830Z 21005KT 9999 FEW030 18/13 Q1014 NOSIG

Closest aviation forecast (TAF) to Air Marugán

Closest forecast is Adolfo Suárez Madrid–Barajas Airport, 45.3 nm (83.8 km) SE. Retrieved 2019/10/18 18:28 UTC (0 seconds ago):

TAF LEMD 181700Z 1818/1924 23010KT 9999 SCT030 TX21/1915Z TN11/1906Z TEMPO 1902/1910 2000 BR BKN008 PROB30 TEMPO 1903/1908 1000 BCFG BKN003 PROB40 TEMPO 1914/1921 20015G27KT TEMPO 1918/1924 4000 RA BKN012 BKN020